Time;durP1;ratioP1;P1;durP2;ratioP2;P2;SDS_P1;SDS_P2;PMS_P1;PMS_P2;Temp;Humidity;BMP_temperature;BMP_pressure;BME280_temperature;BME280_humidity;BME280_pressure;Samples;Min_cycle;Max_cycle;Signal;HPM_P1;HPM_P2
2023/12/03 00:00:43;;;;;;;12.05;5.80;;;;;;;-2.61;100.00;99254.41;5024445;28;20512;-60
2023/12/03 00:03:11;;;;;;;12.90;6.03;;;;;;;-2.73;100.00;99258.75;5020540;28;20029;-60
2023/12/03 00:05:37;;;;;;;12.98;5.82;;;;;;;-2.66;100.00;99256.53;5021965;28;20032;-60
2023/12/03 00:08:03;;;;;;;11.25;5.55;;;;;;;-2.57;100.00;99257.66;5011448;28;20026;-60
2023/12/03 00:10:29;;;;;;;14.55;6.18;;;;;;;-2.66;100.00;99265.31;5015088;28;20033;-60
2023/12/03 00:12:55;;;;;;;13.90;5.78;;;;;;;-2.70;100.00;99261.22;5009306;28;20112;-60
2023/12/03 00:15:21;;;;;;;10.00;5.32;;;;;;;-2.68;100.00;99259.28;5011481;28;20025;-60
2023/12/03 00:17:49;;;;;;;11.25;5.07;;;;;;;-2.70;100.00;99258.56;5009766;28;20033;-60
2023/12/03 00:20:15;;;;;;;11.57;5.85;;;;;;;-2.74;100.00;99253.59;5020259;28;20025;-60
2023/12/03 00:22:40;;;;;;;10.82;5.70;;;;;;;-2.74;100.00;99254.41;5009711;28;20465;-60
2023/12/03 00:25:06;;;;;;;11.25;5.30;;;;;;;-2.70;100.00;99265.63;5023651;28;20037;-59
2023/12/03 00:27:32;;;;;;;12.00;5.47;;;;;;;-2.64;100.00;99259.94;5011831;28;20064;-60
2023/12/03 00:29:57;;;;;;;13.27;5.80;;;;;;;-2.62;100.00;99250.06;5009621;28;20480;-60
2023/12/03 00:32:23;;;;;;;15.05;6.32;;;;;;;-2.66;100.00;99264.47;5018358;28;20032;-60
2023/12/03 00:34:49;;;;;;;14.32;5.82;;;;;;;-2.78;100.00;99265.34;5033073;28;20104;-60
2023/12/03 00:37:14;;;;;;;14.35;6.45;;;;;;;-2.72;100.00;99267.56;5016884;28;20024;-60
2023/12/03 00:39:40;;;;;;;13.32;6.25;;;;;;;-2.74;100.00;99269.47;5016523;28;20036;-60
2023/12/03 00:42:05;;;;;;;11.38;5.88;;;;;;;-2.81;100.00;99271.69;5017202;28;20022;-60
2023/12/03 00:44:32;;;;;;;14.02;6.32;;;;;;;-2.69;100.00;99278.78;5014874;28;20080;-60
2023/12/03 00:46:57;;;;;;;14.90;7.18;;;;;;;-2.75;100.00;99267.75;5016017;28;20025;-60
2023/12/03 00:49:23;;;;;;;11.02;5.75;;;;;;;-2.75;100.00;99281.00;5017133;28;20033;-60
2023/12/03 00:51:48;;;;;;;11.43;6.10;;;;;;;-2.82;100.00;99280.59;5034651;28;20037;-60
2023/12/03 00:54:14;;;;;;;12.50;6.25;;;;;;;-2.79;100.00;99275.09;5015790;28;20021;-60
2023/12/03 00:56:39;;;;;;;16.40;6.95;;;;;;;-2.77;100.00;99286.41;5019187;28;20036;-60
2023/12/03 00:59:04;;;;;;;12.85;6.65;;;;;;;-2.73;100.00;99290.53;5024269;28;20110;-60
2023/12/03 01:01:30;;;;;;;13.10;6.43;;;;;;;-2.69;100.00;99286.72;5008523;28;20076;-60
2023/12/03 01:03:55;;;;;;;13.13;6.03;;;;;;;-2.70;100.00;99298.28;5017022;28;20033;-60
2023/12/03 01:06:20;;;;;;;11.85;5.55;;;;;;;-2.63;100.00;99287.25;5019612;28;20033;-55
2023/12/03 01:08:48;;;;;;;12.07;6.55;;;;;;;-2.62;100.00;99283.63;5016578;28;20037;-55
2023/12/03 01:11:13;;;;;;;13.88;6.45;;;;;;;-2.59;100.00;99289.59;5014540;28;20021;-60
2023/12/03 01:13:39;;;;;;;14.57;6.18;;;;;;;-2.66;100.00;99283.84;5017274;28;20540;-60
2023/12/03 01:16:04;;;;;;;12.90;6.15;;;;;;;-2.59;100.00;99296.66;5015108;28;20051;-60
2023/12/03 01:18:30;;;;;;;16.80;6.63;;;;;;;-2.65;100.00;99303.25;5016805;28;20029;-60
2023/12/03 01:20:55;;;;;;;14.48;6.63;;;;;;;-2.63;100.00;99311.94;5022296;28;20061;-60
2023/12/03 01:23:20;;;;;;;13.70;6.82;;;;;;;-2.59;100.00;99312.56;5018139;28;20080;-60
2023/12/03 01:25:46;;;;;;;14.48;6.90;;;;;;;-2.55;100.00;99324.63;5016881;28;20025;-63
2023/12/03 01:30:40;;;;;;;14.05;6.75;;;;;;;-2.61;100.00;99314.50;5041615;28;20029;-71
2023/12/03 01:33:06;;;;;;;14.30;6.72;;;;;;;-2.71;100.00;99333.66;5051771;28;20100;-71
2023/12/03 01:35:31;;;;;;;17.15;6.75;;;;;;;-2.67;100.00;99336.97;5035080;28;20026;-71
2023/12/03 01:37:56;;;;;;;13.95;6.97;;;;;;;-2.77;100.00;99333.25;5047867;28;20248;-71
2023/12/03 01:40:21;;;;;;;16.02;7.25;;;;;;;-2.84;100.00;99324.03;5073142;28;20092;-73
2023/12/03 01:42:47;;;;;;;16.27;6.82;;;;;;;-2.84;100.00;99329.31;5076339;28;20035;-71
2023/12/03 01:45:12;;;;;;;18.83;7.35;;;;;;;-2.80;100.00;99336.94;5071046;28;20025;-73
2023/12/03 01:47:38;;;;;;;13.23;6.95;;;;;;;-2.59;100.00;99347.88;5062101;28;20033;-72
2023/12/03 01:50:08;;;;;;;14.38;6.75;;;;;;;-2.54;100.00;99345.75;5054743;28;20047;-71
2023/12/03 01:52:35;;;;;;;15.07;6.70;;;;;;;-2.59;100.00;99331.97;5064200;28;20020;-71
2023/12/03 01:55:02;;;;;;;16.85;7.45;;;;;;;-2.70;100.00;99322.13;5044059;28;20021;-71
2023/12/03 01:57:27;;;;;;;15.10;7.28;;;;;;;-2.69;100.00;99336.22;5056975;28;20048;-71
2023/12/03 01:59:52;;;;;;;17.83;6.68;;;;;;;-2.73;100.00;99338.19;5046443;28;20063;-72
2023/12/03 02:02:18;;;;;;;14.85;6.65;;;;;;;-2.72;100.00;99339.91;5040705;28;20043;-72
2023/12/03 02:04:43;;;;;;;17.60;7.25;;;;;;;-2.72;100.00;99347.03;5084481;28;20052;-72
2023/12/03 02:07:08;;;;;;;15.13;7.22;;;;;;;-2.63;100.00;99362.25;5059882;28;20025;-72
2023/12/03 02:09:34;;;;;;;16.58;7.78;;;;;;;-2.61;100.00;99354.22;5068872;28;20031;-72
2023/12/03 02:11:59;;;;;;;16.60;7.28;;;;;;;-2.58;100.00;99361.94;5075127;28;20021;-72
2023/12/03 02:14:25;;;;;;;12.80;6.55;;;;;;;-2.67;100.00;99350.19;5074980;28;20321;-72
2023/12/03 02:16:50;;;;;;;16.33;7.78;;;;;;;-2.72;100.00;99336.44;5075724;28;20080;-72
2023/12/03 02:19:15;;;;;;;15.93;7.40;;;;;;;-2.85;100.00;99341.72;5066635;28;20025;-72
2023/12/03 02:21:41;;;;;;;17.20;7.47;;;;;;;-2.78;100.00;99336.81;5053199;28;20025;-72
2023/12/03 02:24:06;;;;;;;18.80;8.82;;;;;;;-2.82;100.00;99346.78;5050168;28;20039;-72
2023/12/03 02:26:32;;;;;;;14.27;7.18;;;;;;;-2.84;100.00;99347.84;5050480;28;20326;-72
2023/12/03 02:28:57;;;;;;;16.00;7.47;;;;;;;-2.92;100.00;99340.44;5076496;28;20020;-72
2023/12/03 02:31:22;;;;;;;19.23;7.70;;;;;;;-2.83;100.00;99344.25;5069521;28;20437;-72
2023/12/03 02:33:57;;;;;;;17.50;7.78;;;;;;;-2.91;100.00;99343.00;5078224;28;20088;-72
2023/12/03 02:36:22;;;;;;;15.57;7.65;;;;;;;-2.82;100.00;99348.59;5077376;28;20013;-72
2023/12/03 02:38:48;;;;;;;15.32;7.97;;;;;;;-2.80;100.00;99349.31;5062941;28;20029;-71
2023/12/03 02:41:13;;;;;;;17.75;7.72;;;;;;;-2.79;100.00;99351.03;5056453;28;20021;-72
2023/12/03 02:43:38;;;;;;;16.85;7.70;;;;;;;-2.78;100.00;99339.47;5044426;28;20032;-72
2023/12/03 02:46:04;;;;;;;15.32;7.20;;;;;;;-2.82;100.00;99338.84;5064943;28;20032;-72
2023/12/03 02:48:29;;;;;;;17.90;8.18;;;;;;;-2.87;100.00;99328.56;5045053;28;20075;-71
2023/12/03 02:50:54;;;;;;;17.08;7.95;;;;;;;-2.90;100.00;99334.06;5063037;28;20055;-71
2023/12/03 02:53:20;;;;;;;18.23;7.70;;;;;;;-2.82;100.00;99348.59;5063332;28;20013;-71
2023/12/03 02:55:45;;;;;;;17.30;8.50;;;;;;;-2.73;100.00;99340.00;5070510;28;20322;-71
2023/12/03 02:58:10;;;;;;;16.65;7.50;;;;;;;-2.82;100.00;99351.25;5068406;28;20092;-73
2023/12/03 03:00:36;;;;;;;18.40;7.68;;;;;;;-2.87;100.00;99344.47;5059875;28;20027;-74
2023/12/03 03:03:01;;;;;;;19.50;8.15;;;;;;;-2.85;100.00;99343.53;5045258;28;20059;-71
2023/12/03 03:05:26;;;;;;;15.18;7.25;;;;;;;-2.71;100.00;99367.25;5072512;28;20046;-71
2023/12/03 03:07:51;;;;;;;17.65;8.65;;;;;;;-2.81;100.00;99348.47;5064065;28;20035;-74
2023/12/03 03:10:17;;;;;;;13.85;7.10;;;;;;;-2.78;100.00;99344.78;5062058;28;20086;-71
2023/12/03 03:12:42;;;;;;;18.02;7.78;;;;;;;-2.80;100.00;99351.97;5062998;28;20020;-72
2023/12/03 03:15:08;;;;;;;17.52;7.60;;;;;;;-2.98;100.00;99320.53;5045008;28;20020;-72
2023/12/03 03:17:33;;;;;;;18.73;8.18;;;;;;;-2.86;100.00;99350.59;5044643;28;20028;-72
2023/12/03 03:19:59;;;;;;;18.58;7.50;;;;;;;-2.92;100.00;99343.91;5077993;28;20024;-72
2023/12/03 03:22:24;;;;;;;19.25;8.30;;;;;;;-2.78;100.00;99363.31;5074687;28;20009;-72
2023/12/03 03:24:50;;;;;;;21.45;8.48;;;;;;;-2.75;100.00;99363.09;5044934;28;20058;-72
2023/12/03 03:27:16;;;;;;;18.63;8.02;;;;;;;-2.72;100.00;99362.91;5071151;28;20364;-72
2023/12/03 03:29:41;;;;;;;16.17;6.93;;;;;;;-2.84;100.00;99348.69;5060885;28;20028;-72
2023/12/03 03:32:06;;;;;;;19.40;8.18;;;;;;;-2.73;100.00;99377.09;5044954;28;20071;-72
2023/12/03 03:34:32;;;;;;;17.25;7.47;;;;;;;-2.71;100.00;99372.53;5064798;28;20088;-72
2023/12/03 03:36:57;;;;;;;16.80;7.65;;;;;;;-2.82;100.00;99348.59;5044884;28;20021;-73
2023/12/03 03:39:22;;;;;;;18.00;7.75;;;;;;;-2.79;100.00;99378.34;5042443;28;20027;-72
2023/12/03 03:41:48;;;;;;;16.63;8.10;;;;;;;-2.85;100.00;99370.84;5055909;28;20087;-72
2023/12/03 03:44:13;;;;;;;17.67;8.15;;;;;;;-2.71;100.00;99383.97;5057831;28;20040;-72
2023/12/03 03:46:39;;;;;;;20.00;8.38;;;;;;;-2.69;100.00;99375.94;5048733;28;20028;-72
2023/12/03 03:49:04;;;;;;;18.00;7.55;;;;;;;-2.70;100.00;99388.34;5064918;28;20017;-73
2023/12/03 03:51:29;;;;;;;20.30;8.88;;;;;;;-2.76;100.00;99366.72;5032151;28;20105;-72
2023/12/03 03:53:54;;;;;;;19.58;8.27;;;;;;;-2.63;100.00;99380.78;5045956;28;20023;-73
2023/12/03 03:56:20;;;;;;;15.45;7.22;;;;;;;-2.66;100.00;99383.66;5046946;28;20020;-73
2023/12/03 03:58:45;;;;;;;18.38;7.43;;;;;;;-2.68;100.00;99369.66;5060551;28;20017;-73
2023/12/03 04:01:10;;;;;;;17.13;8.02;;;;;;;-2.74;100.00;99372.75;5045034;28;20076;-72
2023/12/03 04:03:36;;;;;;;16.77;7.32;;;;;;;-2.68;100.00;99372.31;5048196;28;20028;-73
2023/12/03 04:06:06;;;;;;;18.95;7.70;;;;;;;-2.70;100.00;99377.75;5050928;28;20021;-72
2023/12/03 04:08:32;;;;;;;18.05;7.63;;;;;;;-2.81;100.00;99360.88;5067188;28;20136;-72
2023/12/03 04:11:04;;;;;;;17.95;7.65;;;;;;;-2.78;100.00;99365.97;5061457;28;20045;-73
2023/12/03 04:13:30;;;;;;;22.05;8.57;;;;;;;-2.90;100.00;99357.91;5076929;28;20382;-72
2023/12/03 04:15:56;;;;;;;15.73;7.22;;;;;;;-2.84;100.00;99374.31;5086072;28;20059;-72
2023/12/03 04:18:22;;;;;;;17.75;7.43;;;;;;;-3.06;100.00;99353.78;5078511;28;20229;-73
2023/12/03 04:20:48;;;;;;;19.15;8.05;;;;;;;-2.97;100.00;99375.16;5049120;28;20029;-72
2023/12/03 04:23:13;;;;;;;18.92;8.48;;;;;;;-3.12;100.00;99371.75;5071656;28;20116;-73
2023/12/03 04:25:39;;;;;;;15.85;7.50;;;;;;;-3.17;100.00;99359.75;5067198;28;20033;-72
2023/12/03 04:28:04;;;;;;;19.80;7.88;;;;;;;-3.07;100.00;99374.06;5047934;28;20055;-72
2023/12/03 04:30:29;;;;;;;13.95;6.63;;;;;;;-3.06;100.00;99375.78;5065294;28;20040;-73
2023/12/03 04:32:55;;;;;;;19.23;7.72;;;;;;;-3.01;100.00;99378.97;5065808;28;20035;-73
2023/12/03 04:35:20;;;;;;;15.68;7.05;;;;;;;-2.96;100.00;99387.47;5066099;28;20036;-72
2023/12/03 04:37:46;;;;;;;15.38;7.05;;;;;;;-2.99;100.00;99389.44;5048309;28;20032;-72
2023/12/03 04:40:11;;;;;;;16.67;7.22;;;;;;;-2.90;100.00;99397.63;5049108;28;20035;-73
2023/12/03 04:42:36;;;;;;;17.10;7.35;;;;;;;-2.92;100.00;99401.31;5056544;28;20036;-73
2023/12/03 04:45:02;;;;;;;14.73;6.80;;;;;;;-3.00;100.00;99374.53;5063437;28;20033;-73
2023/12/03 04:47:28;;;;;;;20.95;6.13;;;;;;;-2.87;100.00;99413.28;5065476;28;20021;-73
2023/12/03 04:49:54;;;;;;;12.40;6.47;;;;;;;-2.95;100.00;99397.06;5064254;28;20360;-72
2023/12/03 04:52:19;;;;;;;14.63;5.70;;;;;;;-2.98;100.00;99401.75;5041522;28;20017;-72
2023/12/03 04:54:44;;;;;;;12.98;5.55;;;;;;;-2.85;100.00;99409.72;5064673;28;20088;-73
2023/12/03 04:57:10;;;;;;;13.75;6.40;;;;;;;-2.84;100.00;99411.41;5065239;28;20063;-73
2023/12/03 04:59:35;;;;;;;12.82;5.60;;;;;;;-2.78;100.00;99419.75;5055834;28;20075;-73
2023/12/03 05:02:00;;;;;;;15.38;6.85;;;;;;;-2.83;100.00;99419.22;5048563;28;20227;-73
2023/12/03 05:04:26;;;;;;;13.38;5.75;;;;;;;-2.82;100.00;99420.09;5073135;28;20035;-73
2023/12/03 05:06:52;;;;;;;12.65;5.93;;;;;;;-2.94;100.00;99406.72;5082899;28;20087;-72
2023/12/03 05:09:18;;;;;;;14.25;6.53;;;;;;;-2.80;100.00;99423.47;5079178;28;20021;-72
2023/12/03 05:11:44;;;;;;;14.05;6.85;;;;;;;-3.04;100.00;99392.38;5052832;28;20314;-72
2023/12/03 05:14:10;;;;;;;15.18;6.20;;;;;;;-2.93;100.00;99397.84;5047323;28;20024;-72
2023/12/03 05:16:35;;;;;;;13.27;6.03;;;;;;;-2.93;100.00;99411.06;5065044;28;20225;-73
2023/12/03 05:19:00;;;;;;;14.90;6.50;;;;;;;-2.99;100.00;99411.47;5069470;28;20028;-72
2023/12/03 05:21:25;;;;;;;12.45;6.07;;;;;;;-2.96;100.00;99427.16;5047573;28;20033;-72
2023/12/03 05:23:51;;;;;;;14.98;5.50;;;;;;;-2.92;100.00;99427.78;5064874;28;20079;-73
2023/12/03 05:26:16;;;;;;;13.82;6.05;;;;;;;-2.95;100.00;99430.66;5064616;28;20033;-73
2023/12/03 05:28:42;;;;;;;14.32;5.70;;;;;;;-2.99;100.00;99422.03;5064939;28;20381;-73
2023/12/03 05:31:07;;;;;;;11.18;5.78;;;;;;;-3.00;100.00;99436.25;5050170;28;20249;-73
2023/12/03 05:33:32;;;;;;;14.30;5.63;;;;;;;-3.10;100.00;99411.34;5046861;28;20100;-72
2023/12/03 05:35:58;;;;;;;12.68;5.72;;;;;;;-3.01;100.00;99436.34;5064823;28;20222;-73
2023/12/03 05:38:23;;;;;;;11.30;5.07;;;;;;;-3.14;100.00;99420.44;5047691;28;20052;-73
2023/12/03 05:40:48;;;;;;;11.20;5.22;;;;;;;-3.14;100.00;99441.63;5064247;28;20055;-73
2023/12/03 05:43:15;;;;;;;14.82;5.68;;;;;;;-3.17;100.00;99437.38;5046578;28;20021;-72
2023/12/03 05:45:40;;;;;;;12.02;5.93;;;;;;;-3.35;100.00;99436.78;5067302;28;20059;-72
2023/12/03 05:48:06;;;;;;;12.05;5.50;;;;;;;-3.29;100.00;99447.91;5047515;28;20016;-72
2023/12/03 05:50:32;;;;;;;11.00;5.32;;;;;;;-3.16;100.00;99451.44;5056864;28;20020;-73
2023/12/03 05:52:57;;;;;;;12.27;5.68;;;;;;;-3.25;100.00;99446.75;5072863;28;20393;-73
2023/12/03 05:55:23;;;;;;;15.68;6.40;;;;;;;-3.15;100.00;99456.63;5046491;28;20048;-73
2023/12/03 05:57:48;;;;;;;11.77;5.38;;;;;;;-3.28;100.00;99452.25;5044085;28;20092;-72
2023/12/03 06:00:14;;;;;;;12.23;5.72;;;;;;;-3.20;100.00;99458.72;5063868;28;20262;-73
2023/12/03 06:02:39;;;;;;;15.07;6.20;;;;;;;-3.36;100.00;99452.72;5064032;28;20020;-72
2023/12/03 06:05:05;;;;;;;11.52;5.82;;;;;;;-3.45;100.00;99440.97;5059720;28;20021;-72
2023/12/03 06:07:30;;;;;;;14.30;6.13;;;;;;;-3.58;100.00;99450.63;5042534;28;20382;-73
2023/12/03 06:09:55;;;;;;;14.05;6.70;;;;;;;-3.69;100.00;99456.59;5053904;28;20048;-72
2023/12/03 06:12:21;;;;;;;13.35;6.18;;;;;;;-3.83;100.00;99453.97;5058783;28;20199;-72
2023/12/03 06:14:46;;;;;;;11.82;5.32;;;;;;;-3.88;100.00;99467.47;5041215;28;20017;-72
2023/12/03 06:17:11;;;;;;;12.25;5.88;;;;;;;-4.06;100.00;99466.84;5063356;28;20025;-73
2023/12/03 06:19:37;;;;;;;14.40;6.25;;;;;;;-4.30;100.00;99445.38;5063573;28;20028;-72
2023/12/03 06:22:02;;;;;;;12.55;5.90;;;;;;;-4.34;100.00;99456.25;5045417;28;20025;-73
2023/12/03 06:24:27;;;;;;;16.55;6.93;;;;;;;-4.33;100.00;99474.63;5063835;28;20027;-72
2023/12/03 06:26:54;;;;;;;16.30;7.10;;;;;;;-4.35;100.00;99479.16;5047733;28;20020;-73
2023/12/03 06:29:19;;;;;;;16.83;7.10;;;;;;;-4.51;100.00;99468.66;5071888;28;20037;-73
2023/12/03 06:31:45;;;;;;;15.73;6.97;;;;;;;-4.53;100.00;99474.97;5074601;28;20028;-72
2023/12/03 06:34:12;;;;;;;15.98;6.95;;;;;;;-4.54;100.00;99483.84;5081310;28;20027;-72
2023/12/03 06:36:37;;;;;;;16.20;7.00;;;;;;;-4.66;100.00;99480.16;5049634;28;20021;-73
2023/12/03 06:39:02;;;;;;;13.15;6.75;;;;;;;-4.82;100.00;99480.22;5058783;28;20017;-73
2023/12/03 06:41:27;;;;;;;15.32;6.70;;;;;;;-4.91;100.00;99478.09;5076038;28;20040;-74
2023/12/03 06:43:53;;;;;;;22.73;8.48;;;;;;;-4.95;100.00;99473.94;5077425;28;20036;-73
2023/12/03 06:46:18;;;;;;;16.58;7.63;;;;;;;-4.91;100.00;99494.78;5075166;28;20092;-74
2023/12/03 06:48:43;;;;;;;15.85;7.47;;;;;;;-4.96;100.00;99482.78;5086601;28;20328;-73
2023/12/03 06:51:09;;;;;;;21.77;7.97;;;;;;;-5.01;100.00;99480.41;5065048;28;20023;-73
2023/12/03 06:53:35;;;;;;;16.88;7.75;;;;;;;-5.10;100.00;99483.59;5056955;28;20033;-74
2023/12/03 06:56:00;;;;;;;16.33;7.57;;;;;;;-5.11;100.00;99495.94;5053042;28;20297;-74
2023/12/03 06:58:25;;;;;;;16.75;7.20;;;;;;;-5.15;100.00;99512.88;5061482;28;20017;-73
2023/12/03 07:00:51;;;;;;;16.95;7.38;;;;;;;-5.17;100.00;99504.19;5043624;28;20089;-73
2023/12/03 07:03:16;;;;;;;17.27;7.53;;;;;;;-5.15;100.00;99502.31;5041591;28;20047;-73
2023/12/03 07:05:42;;;;;;;18.05;7.30;;;;;;;-5.17;100.00;99498.91;5068603;28;20021;-73
2023/12/03 07:08:07;;;;;;;20.52;7.22;;;;;;;-5.13;100.00;99504.88;5056794;28;20021;-73
2023/12/03 07:10:33;;;;;;;28.83;8.65;;;;;;;-5.07;100.00;99515.06;5071301;28;20020;-73
2023/12/03 07:12:59;;;;;;;22.15;8.70;;;;;;;-5.04;100.00;99506.97;5065488;28;20021;-72
2023/12/03 07:15:25;;;;;;;23.70;7.82;;;;;;;-4.99;100.00;99520.75;5074836;28;20084;-76
2023/12/03 07:17:50;;;;;;;19.55;8.90;;;;;;;-4.95;100.00;99513.50;5059827;28;20068;-74
2023/12/03 07:20:18;;;;;;;20.02;8.52;;;;;;;-4.91;100.00;99521.16;5053889;28;20032;-77
2023/12/03 07:22:43;;;;;;;17.50;7.80;;;;;;;-5.00;100.00;99499.72;5058028;28;20037;-76
2023/12/03 07:25:08;;;;;;;19.98;7.45;;;;;;;-4.89;100.00;99521.09;5064133;28;20086;-78
2023/12/03 07:27:34;;;;;;;20.75;8.38;;;;;;;-4.90;100.00;99504.41;5055096;28;20035;-77
2023/12/03 07:29:59;;;;;;;23.80;9.13;;;;;;;-4.57;100.00;99536.84;5087398;22;20056;-49
2023/12/03 07:32:25;;;;;;;28.15;10.02;;;;;;;-4.50;100.00;99540.84;5067791;28;20076;-52
2023/12/03 07:34:50;;;;;;;32.13;11.30;;;;;;;-4.45;100.00;99533.50;5068772;28;20084;-52
2023/12/03 07:37:16;;;;;;;30.92;11.90;;;;;;;-4.36;100.00;99534.75;5070791;28;20032;-52
2023/12/03 07:39:41;;;;;;;24.33;10.13;;;;;;;-4.29;100.00;99536.94;5074102;28;20376;-52
2023/12/03 07:42:07;;;;;;;24.02;10.00;;;;;;;-4.18;100.00;99545.06;5070678;28;20032;-52
2023/12/03 07:44:33;;;;;;;20.92;9.38;;;;;;;-4.10;100.00;99536.66;5074587;28;20043;-52
2023/12/03 07:46:59;;;;;;;19.45;8.48;;;;;;;-4.01;100.00;99524.69;5070064;28;20118;-52
2023/12/03 07:49:24;;;;;;;21.45;8.40;;;;;;;-3.90;100.00;99522.25;5090917;28;20111;-52
2023/12/03 07:51:50;;;;;;;22.38;8.75;;;;;;;-3.76;100.00;99539.91;5075810;28;20452;-52
2023/12/03 07:54:17;;;;;;;19.23;8.88;;;;;;;-3.66;100.00;99537.53;5069654;28;20394;-52
2023/12/03 07:56:42;;;;;;;20.17;7.95;;;;;;;-3.69;100.00;99533.28;5082923;28;20492;-52
2023/12/03 07:59:08;;;;;;;20.55;8.43;;;;;;;-3.62;100.00;99542.53;5067065;28;20062;-52
2023/12/03 08:01:58;;;;;;;19.80;8.32;;;;;;;-3.63;100.00;99550.56;5070909;28;20031;-52
2023/12/03 08:04:22;;;;;;;;;;;;;;;-3.51;100.00;99555.09;5096665;28;20445;-53
2023/12/03 08:06:48;;;;;;;22.52;7.97;;;;;;;-3.31;100.00;99557.31;5079356;28;19912;-49
2023/12/03 08:09:13;;;;;;;21.20;7.93;;;;;;;-3.12;100.00;99557.03;5069680;28;20032;-49
2023/12/03 08:11:38;;;;;;;17.88;7.78;;;;;;;-2.94;100.00;99557.59;5067535;28;20024;-49
2023/12/03 08:14:04;;;;;;;17.73;7.28;;;;;;;-2.75;100.00;99562.59;5063448;28;20379;-50
2023/12/03 08:16:29;;;;;;;17.20;7.53;;;;;;;-2.53;100.00;99572.59;5064628;28;20055;-50
2023/12/03 08:18:55;;;;;;;14.63;7.05;;;;;;;-2.38;100.00;99553.97;5067396;28;20032;-49
2023/12/03 08:21:20;;;;;;;13.82;5.93;;;;;;;-2.29;100.00;99559.50;5067862;28;20074;-49
2023/12/03 08:23:46;;;;;;;15.02;7.28;;;;;;;-2.20;100.00;99560.72;5064728;28;20097;-49
2023/12/03 08:26:11;;;;;;;15.90;7.35;;;;;;;-2.10;100.00;99563.56;5078345;28;20400;-49
2023/12/03 08:28:37;;;;;;;14.02;6.78;;;;;;;-1.85;100.00;99565.41;5079852;28;20031;-54
2023/12/03 08:31:03;;;;;;;12.95;6.57;;;;;;;-1.83;100.00;99559.03;5075848;28;20032;-49
2023/12/03 08:33:28;;;;;;;17.70;7.85;;;;;;;-1.77;100.00;99560.41;5073928;28;20031;-50
2023/12/03 08:35:54;;;;;;;15.27;7.45;;;;;;;-1.85;100.00;99565.41;5069298;28;20034;-51
2023/12/03 08:38:20;;;;;;;21.55;8.95;;;;;;;-1.85;100.00;99565.41;5069570;28;20035;-51
2023/12/03 08:40:45;;;;;;;18.90;8.63;;;;;;;-1.54;100.00;99553.50;5075093;28;20038;-50
2023/12/03 08:43:11;;;;;;;15.55;7.70;;;;;;;-0.64;100.00;99545.25;5064770;28;20367;-51
2023/12/03 08:45:36;;;;;;;15.00;7.80;;;;;;;1.37;100.00;99545.50;5065204;28;20040;-50
2023/12/03 08:48:02;;;;;;;16.27;8.23;;;;;;;3.47;100.00;99546.81;5064088;28;20159;-50
2023/12/03 08:50:29;;;;;;;13.70;7.15;;;;;;;5.15;97.10;99533.69;5067595;28;20063;-50
2023/12/03 08:52:55;;;;;;;17.52;8.57;;;;;;;5.54;83.76;99533.41;5068196;28;20502;-50
2023/12/03 08:55:21;;;;;;;15.63;7.78;;;;;;;6.35;78.53;99531.41;5073408;28;20064;-49
2023/12/03 08:57:46;;;;;;;13.65;7.80;;;;;;;6.95;74.02;99529.69;5066333;28;20024;-50
2023/12/03 09:00:13;;;;;;;13.95;7.63;;;;;;;6.13;72.28;99529.22;5073194;28;20028;-50
2023/12/03 09:02:39;;;;;;;13.38;7.72;;;;;;;6.13;71.53;99540.84;5077082;28;20035;-50
2023/12/03 09:05:05;;;;;;;13.43;7.40;;;;;;;6.08;73.75;99542.31;5071754;28;20035;-54
2023/12/03 09:07:30;;;;;;;14.25;7.88;;;;;;;6.08;71.35;99548.53;5071713;28;20361;-54
2023/12/03 09:09:57;;;;;;;11.85;7.80;;;;;;;6.07;70.54;99559.41;5069130;28;20039;-53
2023/12/03 09:12:23;;;;;;;12.70;7.35;;;;;;;7.12;69.76;99546.72;5070160;28;20031;-54
2023/12/03 09:14:48;;;;;;;11.35;7.32;;;;;;;6.26;67.60;99556.56;5075326;28;20024;-54
2023/12/03 09:17:14;;;;;;;12.93;7.43;;;;;;;6.87;69.32;99546.66;5089886;28;20471;-54
2023/12/03 09:19:40;;;;;;;13.05;7.35;;;;;;;7.37;65.69;99544.97;5071283;28;20399;-55
2023/12/03 09:22:05;;;;;;;13.25;7.57;;;;;;;7.61;65.77;99547.69;5072719;28;20123;-54
2023/12/03 09:24:33;;;;;;;12.13;7.40;;;;;;;7.33;63.62;99547.13;5073882;28;20119;-53
2023/12/03 09:26:58;;;;;;;21.30;10.70;;;;;;;7.28;64.17;99546.78;5063862;28;20025;-54
2023/12/03 09:29:24;;;;;;;15.45;8.27;;;;;;;8.28;62.03;99534.06;5087933;28;20024;-54
2023/12/03 09:31:49;;;;;;;18.67;11.20;;;;;;;9.08;59.95;99530.47;5074690;28;20020;-54
2023/12/03 09:34:16;;;;;;;24.88;12.95;;;;;;;9.82;58.30;99530.91;5068167;28;20115;-52
2023/12/03 09:36:41;;;;;;;16.70;9.68;;;;;;;10.65;55.94;99529.13;5068579;28;20028;-52
2023/12/03 09:39:06;;;;;;;14.15;8.77;;;;;;;11.52;54.87;99524.81;5065074;28;20031;-52
2023/12/03 09:41:35;;;;;;;12.57;7.85;;;;;;;12.07;52.68;99524.13;5056630;28;20024;-53
2023/12/03 09:44:11;;;;;;;11.70;7.32;;;;;;;11.80;52.65;99516.75;5071351;28;20039;-53
2023/12/03 09:46:38;;;;;;;13.10;7.90;;;;;;;11.61;50.90;99521.78;5070230;28;20020;-53
2023/12/03 09:49:09;;;;;;;11.73;7.30;;;;;;;11.20;51.77;99521.53;5070614;28;20024;-53
2023/12/03 09:51:38;;;;;;;10.77;7.25;;;;;;;10.71;52.14;99530.25;5058795;28;20078;-52
2023/12/03 09:54:06;;;;;;;14.00;7.85;;;;;;;11.05;51.04;99524.25;5069196;28;20497;-52
2023/12/03 09:56:33;;;;;;;10.82;6.95;;;;;;;11.24;50.97;99519.25;5086590;28;20043;-52
2023/12/03 09:58:59;;;;;;;10.95;7.05;;;;;;;10.20;52.96;99528.19;5070303;28;20028;-52
2023/12/03 10:01:25;;;;;;;11.02;7.63;;;;;;;10.32;52.94;99528.59;5069392;28;20391;-52
2023/12/03 10:03:52;;;;;;;11.45;7.40;;;;;;;10.87;52.65;99515.69;5074461;28;20040;-52
2023/12/03 10:06:19;;;;;;;11.45;7.47;;;;;;;11.74;51.30;99514.84;5061936;28;20047;-52
2023/12/03 10:08:46;;;;;;;10.32;7.03;;;;;;;12.25;49.45;99503.81;5072913;28;20027;-52
2023/12/03 10:11:16;;;;;;;11.20;6.88;;;;;;;9.31;51.48;99519.75;5082490;28;20024;-52
2023/12/03 10:13:42;;;;;;;10.90;6.18;;;;;;;9.95;52.36;99505.94;5072635;28;20102;-53
2023/12/03 10:16:11;;;;;;;11.63;6.80;;;;;;;10.72;52.26;99503.00;5072282;28;20058;-52
2023/12/03 10:18:37;;;;;;;11.77;6.72;;;;;;;11.67;50.93;99505.78;5066747;28;20122;-52
2023/12/03 10:21:07;;;;;;;9.05;6.07;;;;;;;12.53;49.44;99492.13;5066155;28;20254;-52
2023/12/03 10:23:35;;;;;;;12.02;6.88;;;;;;;11.62;49.62;99515.31;5074925;28;20665;-52
2023/12/03 10:26:11;;;;;;;10.43;6.57;;;;;;;12.21;50.70;99506.09;5074221;28;20123;-52
2023/12/03 10:28:41;;;;;;;10.85;7.18;;;;;;;12.37;48.64;99496.00;5067925;28;20036;-52
2023/12/03 10:31:17;;;;;;;10.68;6.70;;;;;;;12.83;48.92;99490.81;5082674;28;20036;-52
2023/12/03 10:33:43;;;;;;;10.05;7.00;;;;;;;13.39;47.12;99498.00;5066557;28;20028;-52
2023/12/03 10:36:09;;;;;;;11.60;7.50;;;;;;;12.01;47.65;99502.38;5074742;28;20116;-52
2023/12/03 10:38:36;;;;;;;10.15;7.20;;;;;;;12.18;48.72;99509.22;5085317;28;20103;-50
2023/12/03 10:41:10;;;;;;;11.95;7.15;;;;;;;12.80;48.27;99502.09;5073327;28;20028;-52
2023/12/03 10:43:37;;;;;;;10.25;7.32;;;;;;;14.05;47.05;99505.44;5057716;28;20498;-52
2023/12/03 10:46:11;;;;;;;11.65;7.95;;;;;;;13.99;46.75;99500.81;5070248;28;20035;-51
2023/12/03 10:48:37;;;;;;;13.88;8.23;;;;;;;13.64;46.76;99514.56;5065507;28;20036;-52
2023/12/03 10:51:10;;;;;;;13.05;8.45;;;;;;;13.24;45.57;99508.16;5063479;28;20029;-52
2023/12/03 10:53:37;;;;;;;10.38;7.57;;;;;;;11.35;48.21;99497.13;5071995;28;20085;-51
2023/12/03 10:56:05;;;;;;;12.77;8.00;;;;;;;12.79;47.78;99492.28;5068179;28;20028;-51
2023/12/03 10:58:33;;;;;;;10.25;7.30;;;;;;;12.45;47.98;99498.56;5065384;28;20028;-52
2023/12/03 11:01:23;;;;;;;10.90;7.28;;;;;;;12.24;47.79;99489.44;5068759;28;20032;-51
2023/12/03 11:03:49;;;;;;;11.82;7.18;;;;;;;11.67;48.75;99489.53;5072498;28;20043;-52
2023/12/03 11:06:17;;;;;;;12.65;8.13;;;;;;;13.96;46.26;99482.19;5074650;28;20356;-53
2023/12/03 11:08:45;;;;;;;13.25;8.30;;;;;;;13.18;46.74;99484.50;5081192;28;20020;-50
2023/12/03 11:11:12;;;;;;;11.57;8.30;;;;;;;13.86;45.72;99476.31;5069024;28;20085;-52
2023/12/03 11:13:39;;;;;;;10.40;7.47;;;;;;;13.56;46.19;99485.69;5065326;28;20031;-53
2023/12/03 11:16:06;;;;;;;11.75;8.07;;;;;;;13.03;47.61;99490.09;5070017;28;20173;-50